sensor_id;sensor_type;location;lat;lon;timestamp;temperature;humidity
16578;DHT22;8401;52.528;13.340;2023-03-01T00:01:14;1.60;99.90
16578;DHT22;8401;52.528;13.340;2023-03-01T00:03:41;1.60;99.90
16578;DHT22;8401;52.528;13.340;2023-03-01T00:06:07;1.60;99.90
16578;DHT22;8401;52.528;13.340;2023-03-01T00:08:34;1.70;99.90
16578;DHT22;8401;52.528;13.340;2023-03-01T00:11:18;1.70;99.90
16578;DHT22;8401;52.528;13.340;2023-03-01T00:13:48;1.60;99.90
16578;DHT22;8401;52.528;13.340;2023-03-01T00:16:19;1.50;99.90
16578;DHT22;8401;52.528;13.340;2023-03-01T00:18:45;1.50;99.90
16578;DHT22;8401;52.528;13.340;2023-03-01T00:21:11;1.50;99.90
16578;DHT22;8401;52.528;13.340;2023-03-01T00:23:38;1.50;99.90
16578;DHT22;8401;52.528;13.340;2023-03-01T00:26:09;1.50;99.90
16578;DHT22;8401;52.528;13.340;2023-03-01T00:28:35;1.40;99.90
16578;DHT22;8401;52.528;13.340;2023-03-01T00:31:05;1.40;99.90
16578;DHT22;8401;52.528;13.340;2023-03-01T00:33:31;1.40;99.90
16578;DHT22;8401;52.528;13.340;2023-03-01T00:36:00;1.40;99.90
16578;DHT22;8401;52.528;13.340;2023-03-01T00:38:26;1.40;99.90
16578;DHT22;8401;52.528;13.340;2023-03-01T00:40:52;1.40;99.90
16578;DHT22;8401;52.528;13.340;2023-03-01T00:43:18;1.30;99.90
16578;DHT22;8401;52.528;13.340;2023-03-01T00:45:43;1.30;99.90
16578;DHT22;8401;52.528;13.340;2023-03-01T00:48:09;1.20;99.90
16578;DHT22;8401;52.528;13.340;2023-03-01T00:50:35;1.00;99.90
16578;DHT22;8401;52.528;13.340;2023-03-01T00:53:00;0.90;99.90
16578;DHT22;8401;52.528;13.340;2023-03-01T00:55:26;0.80;99.90
16578;DHT22;8401;52.528;13.340;2023-03-01T00:57:52;0.60;99.90
16578;DHT22;8401;52.528;13.340;2023-03-01T01:00:19;0.60;99.90
16578;DHT22;8401;52.528;13.340;2023-03-01T01:02:44;0.60;99.90
16578;DHT22;8401;52.528;13.340;2023-03-01T01:05:11;0.50;99.90
16578;DHT22;8401;52.528;13.340;2023-03-01T01:07:37;0.50;99.90
16578;DHT22;8401;52.528;13.340;2023-03-01T01:10:03;0.60;99.90
16578;DHT22;8401;52.528;13.340;2023-03-01T01:12:29;0.70;99.90
16578;DHT22;8401;52.528;13.340;2023-03-01T01:14:55;0.70;99.90
16578;DHT22;8401;52.528;13.340;2023-03-01T01:17:20;0.80;99.90
16578;DHT22;8401;52.528;13.340;2023-03-01T01:19:46;0.80;99.90
16578;DHT22;8401;52.528;13.340;2023-03-01T01:22:11;0.70;99.90
16578;DHT22;8401;52.528;13.340;2023-03-01T01:24:37;0.80;99.90
16578;DHT22;8401;52.528;13.340;2023-03-01T01:27:03;0.70;99.90
16578;DHT22;8401;52.528;13.340;2023-03-01T01:29:28;0.70;99.90
16578;DHT22;8401;52.528;13.340;2023-03-01T01:31:54;0.70;99.90
16578;DHT22;8401;52.528;13.340;2023-03-01T01:34:21;0.70;99.90
16578;DHT22;8401;52.528;13.340;2023-03-01T01:36:51;0.70;99.90
16578;DHT22;8401;52.528;13.340;2023-03-01T01:39:21;0.80;99.90
16578;DHT22;8401;52.528;13.340;2023-03-01T01:41:47;0.80;99.90
16578;DHT22;8401;52.528;13.340;2023-03-01T01:44:26;0.80;99.90
16578;DHT22;8401;52.528;13.340;2023-03-01T01:47:01;0.70;99.90
16578;DHT22;8401;52.528;13.340;2023-03-01T01:49:35;0.60;99.90
16578;DHT22;8401;52.528;13.340;2023-03-01T01:52:19;0.70;99.90
16578;DHT22;8401;52.528;13.340;2023-03-01T01:57:24;0.60;99.90
16578;DHT22;8401;52.528;13.340;2023-03-01T01:59:54;0.70;99.90
16578;DHT22;8401;52.528;13.340;2023-03-01T02:02:21;0.70;99.90
16578;DHT22;8401;52.528;13.340;2023-03-01T02:04:49;0.70;99.90
16578;DHT22;8401;52.528;13.340;2023-03-01T02:07:18;0.70;99.90
16578;DHT22;8401;52.528;13.340;2023-03-01T02:09:46;0.70;99.90
16578;DHT22;8401;52.528;13.340;2023-03-01T02:12:14;0.70;99.90
16578;DHT22;8401;52.528;13.340;2023-03-01T02:14:40;0.60;99.90
16578;DHT22;8401;52.528;13.340;2023-03-01T02:17:06;0.60;99.90
16578;DHT22;8401;52.528;13.340;2023-03-01T02:19:56;0.60;99.90
16578;DHT22;8401;52.528;13.340;2023-03-01T02:22:25;0.60;99.90
16578;DHT22;8401;52.528;13.340;2023-03-01T02:27:38;0.70;99.90
16578;DHT22;8401;52.528;13.340;2023-03-01T02:30:06;0.70;99.90
16578;DHT22;8401;52.528;13.340;2023-03-01T02:32:33;0.70;99.90
16578;DHT22;8401;52.528;13.340;2023-03-01T02:34:59;0.70;99.90
16578;DHT22;8401;52.528;13.340;2023-03-01T02:37:26;0.70;99.90
16578;DHT22;8401;52.528;13.340;2023-03-01T02:39:59;0.80;99.90
16578;DHT22;8401;52.528;13.340;2023-03-01T02:42:35;0.80;99.90
16578;DHT22;8401;52.528;13.340;2023-03-01T02:45:02;0.80;99.90
16578;DHT22;8401;52.528;13.340;2023-03-01T02:47:28;0.80;99.90
16578;DHT22;8401;52.528;13.340;2023-03-01T02:49:54;0.80;99.90
16578;DHT22;8401;52.528;13.340;2023-03-01T02:55:30;0.70;99.90
16578;DHT22;8401;52.528;13.340;2023-03-01T02:57:56;0.70;99.90
16578;DHT22;8401;52.528;13.340;2023-03-01T03:00:30;0.70;99.90
16578;DHT22;8401;52.528;13.340;2023-03-01T03:02:58;0.70;99.90
16578;DHT22;8401;52.528;13.340;2023-03-01T03:05:27;0.70;99.90
16578;DHT22;8401;52.528;13.340;2023-03-01T03:07:54;0.70;99.90
16578;DHT22;8401;52.528;13.340;2023-03-01T03:10:21;0.70;99.90
16578;DHT22;8401;52.528;13.340;2023-03-01T03:12:55;0.70;99.90
16578;DHT22;8401;52.528;13.340;2023-03-01T03:15:22;0.70;99.90
16578;DHT22;8401;52.528;13.340;2023-03-01T03:17:49;0.60;99.90
16578;DHT22;8401;52.528;13.340;2023-03-01T03:20:17;0.70;99.90
16578;DHT22;8401;52.528;13.340;2023-03-01T03:22:48;0.70;99.90
16578;DHT22;8401;52.528;13.340;2023-03-01T03:25:15;0.70;99.90
16578;DHT22;8401;52.528;13.340;2023-03-01T03:27:42;0.70;99.90
16578;DHT22;8401;52.528;13.340;2023-03-01T03:30:11;0.60;99.90
16578;DHT22;8401;52.528;13.340;2023-03-01T03:32:41;0.60;99.90
16578;DHT22;8401;52.528;13.340;2023-03-01T03:35:08;0.60;99.90
16578;DHT22;8401;52.528;13.340;2023-03-01T03:37:40;0.50;99.90
16578;DHT22;8401;52.528;13.340;2023-03-01T03:40:27;0.50;99.90
16578;DHT22;8401;52.528;13.340;2023-03-01T03:42:54;0.50;99.90
16578;DHT22;8401;52.528;13.340;2023-03-01T03:45:20;0.50;99.90
16578;DHT22;8401;52.528;13.340;2023-03-01T03:47:45;0.50;99.90
16578;DHT22;8401;52.528;13.340;2023-03-01T03:50:14;0.60;99.90
16578;DHT22;8401;52.528;13.340;2023-03-01T03:52:40;0.60;99.90
16578;DHT22;8401;52.528;13.340;2023-03-01T03:55:07;0.50;99.90
16578;DHT22;8401;52.528;13.340;2023-03-01T03:57:40;0.50;99.90
16578;DHT22;8401;52.528;13.340;2023-03-01T04:00:10;0.50;99.90
16578;DHT22;8401;52.528;13.340;2023-03-01T04:02:42;0.50;99.90
16578;DHT22;8401;52.528;13.340;2023-03-01T04:05:10;0.40;99.90
16578;DHT22;8401;52.528;13.340;2023-03-01T04:07:37;0.40;99.90
16578;DHT22;8401;52.528;13.340;2023-03-01T04:10:04;0.50;99.90
16578;DHT22;8401;52.528;13.340;2023-03-01T04:12:30;0.40;99.90
16578;DHT22;8401;52.528;13.340;2023-03-01T04:14:56;0.30;99.90
16578;DHT22;8401;52.528;13.340;2023-03-01T04:17:21;0.30;99.90
16578;DHT22;8401;52.528;13.340;2023-03-01T04:19:47;0.40;99.90
16578;DHT22;8401;52.528;13.340;2023-03-01T04:22:14;0.30;99.90
16578;DHT22;8401;52.528;13.340;2023-03-01T04:24:44;0.20;99.90
16578;DHT22;8401;52.528;13.340;2023-03-01T04:27:10;0.30;99.90
16578;DHT22;8401;52.528;13.340;2023-03-01T04:29:36;0.20;99.90
16578;DHT22;8401;52.528;13.340;2023-03-01T04:32:02;0.20;99.90
16578;DHT22;8401;52.528;13.340;2023-03-01T04:34:29;0.20;99.90
16578;DHT22;8401;52.528;13.340;2023-03-01T04:36:55;0.10;99.90
16578;DHT22;8401;52.528;13.340;2023-03-01T04:39:21;0.10;99.90
16578;DHT22;8401;52.528;13.340;2023-03-01T04:41:46;0.20;99.90
16578;DHT22;8401;52.528;13.340;2023-03-01T04:44:13;0.20;99.90
16578;DHT22;8401;52.528;13.340;2023-03-01T04:46:38;0.20;99.90
16578;DHT22;8401;52.528;13.340;2023-03-01T04:49:04;0.20;99.90
16578;DHT22;8401;52.528;13.340;2023-03-01T04:51:31;0.20;99.90
16578;DHT22;8401;52.528;13.340;2023-03-01T04:53:58;0.30;99.90
16578;DHT22;8401;52.528;13.340;2023-03-01T04:56:23;0.30;99.90
16578;DHT22;8401;52.528;13.340;2023-03-01T04:58:49;0.30;99.90
16578;DHT22;8401;52.528;13.340;2023-03-01T05:01:17;0.20;99.90
16578;DHT22;8401;52.528;13.340;2023-03-01T05:03:45;0.20;99.90
16578;DHT22;8401;52.528;13.340;2023-03-01T05:06:12;0.10;99.90
16578;DHT22;8401;52.528;13.340;2023-03-01T05:08:38;0.10;99.90
16578;DHT22;8401;52.528;13.340;2023-03-01T05:11:04;0.10;99.90
16578;DHT22;8401;52.528;13.340;2023-03-01T05:13:31;0.10;99.90
16578;DHT22;8401;52.528;13.340;2023-03-01T05:15:59;0.00;99.90
16578;DHT22;8401;52.528;13.340;2023-03-01T05:18:26;0.00;99.90
16578;DHT22;8401;52.528;13.340;2023-03-01T05:23:31;-0.20;99.90
16578;DHT22;8401;52.528;13.340;2023-03-01T05:26:01;-0.30;99.90
16578;DHT22;8401;52.528;13.340;2023-03-01T05:28:28;-0.20;99.90
16578;DHT22;8401;52.528;13.340;2023-03-01T05:30:54;-0.20;99.90
16578;DHT22;8401;52.528;13.340;2023-03-01T05:33:20;-0.20;99.90
16578;DHT22;8401;52.528;13.340;2023-03-01T05:35:48;-0.10;99.90
16578;DHT22;8401;52.528;13.340;2023-03-01T05:38:14;-0.20;99.90
16578;DHT22;8401;52.528;13.340;2023-03-01T05:40:45;-0.10;99.90
16578;DHT22;8401;52.528;13.340;2023-03-01T05:43:12;0.00;99.90
16578;DHT22;8401;52.528;13.340;2023-03-01T05:45:39;-0.10;99.90
16578;DHT22;8401;52.528;13.340;2023-03-01T05:48:07;0.00;99.90
16578;DHT22;8401;52.528;13.340;2023-03-01T05:50:36;0.00;99.90
16578;DHT22;8401;52.528;13.340;2023-03-01T05:53:05;-0.10;99.90
16578;DHT22;8401;52.528;13.340;2023-03-01T05:55:31;0.00;99.90
16578;DHT22;8401;52.528;13.340;2023-03-01T05:58:07;-0.10;99.90
16578;DHT22;8401;52.528;13.340;2023-03-01T06:00:33;-0.10;99.90
16578;DHT22;8401;52.528;13.340;2023-03-01T06:02:59;-0.20;99.90
16578;DHT22;8401;52.528;13.340;2023-03-01T06:05:26;-0.10;99.90
16578;DHT22;8401;52.528;13.340;2023-03-01T06:07:52;-0.20;99.90
16578;DHT22;8401;52.528;13.340;2023-03-01T06:10:20;-0.10;99.90
16578;DHT22;8401;52.528;13.340;2023-03-01T06:12:46;-0.10;99.90
16578;DHT22;8401;52.528;13.340;2023-03-01T06:15:14;-0.20;99.90
16578;DHT22;8401;52.528;13.340;2023-03-01T06:17:42;-0.10;99.90
16578;DHT22;8401;52.528;13.340;2023-03-01T06:20:15;-0.10;99.90
16578;DHT22;8401;52.528;13.340;2023-03-01T06:22:42;-0.10;99.90
16578;DHT22;8401;52.528;13.340;2023-03-01T06:25:08;-0.30;99.90
16578;DHT22;8401;52.528;13.340;2023-03-01T06:27:33;-0.20;99.90
16578;DHT22;8401;52.528;13.340;2023-03-01T06:29:59;-0.20;99.90
16578;DHT22;8401;52.528;13.340;2023-03-01T06:32:25;-0.20;99.90
16578;DHT22;8401;52.528;13.340;2023-03-01T06:34:50;-0.30;99.90
16578;DHT22;8401;52.528;13.340;2023-03-01T06:37:16;-0.20;99.90
16578;DHT22;8401;52.528;13.340;2023-03-01T06:39:41;-0.10;99.90
16578;DHT22;8401;52.528;13.340;2023-03-01T06:42:08;-0.10;99.90
16578;DHT22;8401;52.528;13.340;2023-03-01T06:44:35;0.00;99.90
16578;DHT22;8401;52.528;13.340;2023-03-01T06:47:01;0.00;99.90
16578;DHT22;8401;52.528;13.340;2023-03-01T06:49:27;0.00;99.90
16578;DHT22;8401;52.528;13.340;2023-03-01T06:51:53;0.10;99.90
16578;DHT22;8401;52.528;13.340;2023-03-01T06:54:18;0.20;99.90
16578;DHT22;8401;52.528;13.340;2023-03-01T06:56:48;0.10;99.90
16578;DHT22;8401;52.528;13.340;2023-03-01T06:59:13;0.00;99.90
16578;DHT22;8401;52.528;13.340;2023-03-01T07:01:39;-0.10;99.90
16578;DHT22;8401;52.528;13.340;2023-03-01T07:04:05;-0.10;99.90
16578;DHT22;8401;52.528;13.340;2023-03-01T07:06:31;-0.20;99.90
16578;DHT22;8401;52.528;13.340;2023-03-01T07:08:56;-0.20;99.90
16578;DHT22;8401;52.528;13.340;2023-03-01T07:11:22;-0.10;99.90
16578;DHT22;8401;52.528;13.340;2023-03-01T07:13:48;0.00;99.90
16578;DHT22;8401;52.528;13.340;2023-03-01T07:16:14;0.10;99.90
16578;DHT22;8401;52.528;13.340;2023-03-01T07:18:40;0.10;99.90
16578;DHT22;8401;52.528;13.340;2023-03-01T07:21:07;0.10;99.90
16578;DHT22;8401;52.528;13.340;2023-03-01T07:23:34;0.00;99.90
16578;DHT22;8401;52.528;13.340;2023-03-01T07:25:59;0.10;99.90
16578;DHT22;8401;52.528;13.340;2023-03-01T07:28:26;0.20;99.90
16578;DHT22;8401;52.528;13.340;2023-03-01T07:30:52;0.20;99.90
16578;DHT22;8401;52.528;13.340;2023-03-01T07:33:17;0.20;99.90
16578;DHT22;8401;52.528;13.340;2023-03-01T07:35:43;0.20;99.90
16578;DHT22;8401;52.528;13.340;2023-03-01T07:38:09;0.30;99.90
16578;DHT22;8401;52.528;13.340;2023-03-01T07:40:35;0.40;99.90
16578;DHT22;8401;52.528;13.340;2023-03-01T07:43:01;0.50;99.90
16578;DHT22;8401;52.528;13.340;2023-03-01T07:45:27;0.60;99.90
16578;DHT22;8401;52.528;13.340;2023-03-01T07:47:54;0.80;99.90
16578;DHT22;8401;52.528;13.340;2023-03-01T07:50:20;0.90;99.90
16578;DHT22;8401;52.528;13.340;2023-03-01T07:52:47;1.00;99.90
16578;DHT22;8401;52.528;13.340;2023-03-01T07:55:13;1.10;99.90
16578;DHT22;8401;52.528;13.340;2023-03-01T07:57:39;1.10;99.90
16578;DHT22;8401;52.528;13.340;2023-03-01T08:00:05;1.30;99.90
16578;DHT22;8401;52.528;13.340;2023-03-01T08:02:32;1.40;99.90
16578;DHT22;8401;52.528;13.340;2023-03-01T08:04:57;1.50;99.90
16578;DHT22;8401;52.528;13.340;2023-03-01T08:07:23;1.60;99.90
16578;DHT22;8401;52.528;13.340;2023-03-01T08:09:48;1.60;99.90
16578;DHT22;8401;52.528;13.340;2023-03-01T08:12:14;1.60;99.90
16578;DHT22;8401;52.528;13.340;2023-03-01T08:14:42;1.70;99.90
16578;DHT22;8401;52.528;13.340;2023-03-01T08:17:07;1.80;99.90
16578;DHT22;8401;52.528;13.340;2023-03-01T08:19:33;1.90;99.90
16578;DHT22;8401;52.528;13.340;2023-03-01T08:22:01;2.10;99.90
16578;DHT22;8401;52.528;13.340;2023-03-01T08:24:27;2.10;99.90
16578;DHT22;8401;52.528;13.340;2023-03-01T08:26:53;2.10;99.90
16578;DHT22;8401;52.528;13.340;2023-03-01T08:29:19;2.20;99.90
16578;DHT22;8401;52.528;13.340;2023-03-01T08:31:45;2.30;99.90
16578;DHT22;8401;52.528;13.340;2023-03-01T08:34:13;2.40;99.90
16578;DHT22;8401;52.528;13.340;2023-03-01T08:36:41;2.60;99.90
16578;DHT22;8401;52.528;13.340;2023-03-01T08:39:09;2.70;99.90
16578;DHT22;8401;52.528;13.340;2023-03-01T08:41:34;2.80;99.90
16578;DHT22;8401;52.528;13.340;2023-03-01T08:44:00;2.90;99.90
16578;DHT22;8401;52.528;13.340;2023-03-01T08:46:31;3.10;99.90
16578;DHT22;8401;52.528;13.340;2023-03-01T08:48:57;3.20;99.90
16578;DHT22;8401;52.528;13.340;2023-03-01T08:51:24;3.30;99.90
16578;DHT22;8401;52.528;13.340;2023-03-01T08:53:50;3.50;99.90
16578;DHT22;8401;52.528;13.340;2023-03-01T08:56:17;3.90;99.90
16578;DHT22;8401;52.528;13.340;2023-03-01T08:58:48;3.90;99.90
16578;DHT22;8401;52.528;13.340;2023-03-01T09:01:16;4.10;99.90
16578;DHT22;8401;52.528;13.340;2023-03-01T09:03:42;4.10;99.90
16578;DHT22;8401;52.528;13.340;2023-03-01T09:06:08;4.50;99.90
16578;DHT22;8401;52.528;13.340;2023-03-01T09:08:35;4.80;99.90
16578;DHT22;8401;52.528;13.340;2023-03-01T09:11:02;5.10;99.90
16578;DHT22;8401;52.528;13.340;2023-03-01T09:13:29;5.20;99.90
16578;DHT22;8401;52.528;13.340;2023-03-01T09:15:57;5.20;99.90
16578;DHT22;8401;52.528;13.340;2023-03-01T09:18:23;5.30;99.90
16578;DHT22;8401;52.528;13.340;2023-03-01T09:20:49;5.50;99.90
16578;DHT22;8401;52.528;13.340;2023-03-01T09:23:14;5.60;99.90
16578;DHT22;8401;52.528;13.340;2023-03-01T09:25:40;6.10;99.90
16578;DHT22;8401;52.528;13.340;2023-03-01T09:28:05;6.40;99.90
16578;DHT22;8401;52.528;13.340;2023-03-01T09:30:31;7.00;99.90
16578;DHT22;8401;52.528;13.340;2023-03-01T09:32:57;8.60;99.90
16578;DHT22;8401;52.528;13.340;2023-03-01T09:35:22;11.00;99.90
16578;DHT22;8401;52.528;13.340;2023-03-01T09:37:49;13.80;99.90
16578;DHT22;8401;52.528;13.340;2023-03-01T09:40:21;15.90;99.90
16578;DHT22;8401;52.528;13.340;2023-03-01T09:43:05;16.90;99.90
16578;DHT22;8401;52.528;13.340;2023-03-01T09:45:40;18.00;99.90
16578;DHT22;8401;52.528;13.340;2023-03-01T09:48:22;18.10;99.90
16578;DHT22;8401;52.528;13.340;2023-03-01T09:50:50;17.10;99.90
16578;DHT22;8401;52.528;13.340;2023-03-01T09:53:19;16.80;99.90
16578;DHT22;8401;52.528;13.340;2023-03-01T09:56:37;15.70;99.90
16578;DHT22;8401;52.528;13.340;2023-03-01T10:04:46;18.00;97.70
16578;DHT22;8401;52.528;13.340;2023-03-01T10:09:43;16.50;98.10
16578;DHT22;8401;52.528;13.340;2023-03-01T10:12:17;15.20;97.90
16578;DHT22;8401;52.528;13.340;2023-03-01T10:14:57;14.30;98.30
16578;DHT22;8401;52.528;13.340;2023-03-01T10:17:52;15.50;98.60
16578;DHT22;8401;52.528;13.340;2023-03-01T10:20:26;14.00;98.30
16578;DHT22;8401;52.528;13.340;2023-03-01T10:22:52;14.60;98.50
16578;DHT22;8401;52.528;13.340;2023-03-01T10:28:28;14.10;97.90
16578;DHT22;8401;52.528;13.340;2023-03-01T10:30:57;15.40;97.70
16578;DHT22;8401;52.528;13.340;2023-03-01T10:33:29;17.40;98.00
16578;DHT22;8401;52.528;13.340;2023-03-01T10:35:56;17.50;97.00
16578;DHT22;8401;52.528;13.340;2023-03-01T10:38:22;17.60;95.70
16578;DHT22;8401;52.528;13.340;2023-03-01T10:43:23;15.60;94.60
16578;DHT22;8401;52.528;13.340;2023-03-01T10:45:49;16.50;94.70
16578;DHT22;8401;52.528;13.340;2023-03-01T10:51:05;15.30;94.20
16578;DHT22;8401;52.528;13.340;2023-03-01T10:56:09;15.20;93.80
16578;DHT22;8401;52.528;13.340;2023-03-01T10:58:37;15.10;93.40
16578;DHT22;8401;52.528;13.340;2023-03-01T11:01:31;15.90;93.50
16578;DHT22;8401;52.528;13.340;2023-03-01T11:04:13;15.40;93.20
16578;DHT22;8401;52.528;13.340;2023-03-01T11:06:43;17.90;92.70
16578;DHT22;8401;52.528;13.340;2023-03-01T11:09:23;17.30;92.70
16578;DHT22;8401;52.528;13.340;2023-03-01T11:11:54;16.80;92.20
16578;DHT22;8401;52.528;13.340;2023-03-01T11:14:27;18.60;92.40
16578;DHT22;8401;52.528;13.340;2023-03-01T11:17:23;17.20;91.30
16578;DHT22;8401;52.528;13.340;2023-03-01T11:22:54;19.60;89.40
16578;DHT22;8401;52.528;13.340;2023-03-01T11:25:32;21.00;87.50
16578;DHT22;8401;52.528;13.340;2023-03-01T11:28:02;20.40;85.50
16578;DHT22;8401;52.528;13.340;2023-03-01T11:30:56;19.50;84.10
16578;DHT22;8401;52.528;13.340;2023-03-01T11:33:51;19.80;83.60
16578;DHT22;8401;52.528;13.340;2023-03-01T11:36:35;18.40;84.00
16578;DHT22;8401;52.528;13.340;2023-03-01T11:44:41;23.80;80.30
16578;DHT22;8401;52.528;13.340;2023-03-01T12:01:37;18.30;72.20
16578;DHT22;8401;52.528;13.340;2023-03-01T12:06:28;14.70;72.80
16578;DHT22;8401;52.528;13.340;2023-03-01T12:09:21;15.10;73.70
16578;DHT22;8401;52.528;13.340;2023-03-01T12:14:40;12.70;74.70
16578;DHT22;8401;52.528;13.340;2023-03-01T12:17:28;11.90;75.50
16578;DHT22;8401;52.528;13.340;2023-03-01T12:22:55;10.80;78.00
16578;DHT22;8401;52.528;13.340;2023-03-01T12:25:34;10.60;78.60
16578;DHT22;8401;52.528;13.340;2023-03-01T12:49:40;9.80;81.20
16578;DHT22;8401;52.528;13.340;2023-03-01T12:52:55;10.00;81.40
16578;DHT22;8401;52.528;13.340;2023-03-01T12:55:02;9.80;81.10
16578;DHT22;8401;52.528;13.340;2023-03-01T12:57:38;9.60;81.80
16578;DHT22;8401;52.528;13.340;2023-03-01T13:00:57;9.70;81.20
16578;DHT22;8401;52.528;13.340;2023-03-01T13:03:02;9.80;80.40
16578;DHT22;8401;52.528;13.340;2023-03-01T13:09:10;10.30;79.60
16578;DHT22;8401;52.528;13.340;2023-03-01T13:11:19;10.60;79.30
16578;DHT22;8401;52.528;13.340;2023-03-01T13:13:46;10.10;78.80
16578;DHT22;8401;52.528;13.340;2023-03-01T13:19:14;10.50;79.20
16578;DHT22;8401;52.528;13.340;2023-03-01T13:21:41;10.00;78.00
16578;DHT22;8401;52.528;13.340;2023-03-01T13:29:49;10.40;79.30
16578;DHT22;8401;52.528;13.340;2023-03-01T13:32:26;10.60;78.80
16578;DHT22;8401;52.528;13.340;2023-03-01T13:37:45;10.20;79.60
16578;DHT22;8401;52.528;13.340;2023-03-01T13:42:50;10.40;80.30
16578;DHT22;8401;52.528;13.340;2023-03-01T13:45:32;10.60;79.60
16578;DHT22;8401;52.528;13.340;2023-03-01T13:48:03;10.60;79.40
16578;DHT22;8401;52.528;13.340;2023-03-01T13:50:38;10.90;80.10
16578;DHT22;8401;52.528;13.340;2023-03-01T13:53:18;10.60;80.10
16578;DHT22;8401;52.528;13.340;2023-03-01T13:55:50;10.50;80.10
16578;DHT22;8401;52.528;13.340;2023-03-01T13:58:29;10.10;80.40
16578;DHT22;8401;52.528;13.340;2023-03-01T14:00:58;10.80;81.20
16578;DHT22;8401;52.528;13.340;2023-03-01T14:03:24;11.00;81.00
16578;DHT22;8401;52.528;13.340;2023-03-01T14:08:27;11.30;78.70
16578;DHT22;8401;52.528;13.340;2023-03-01T14:16:53;10.40;81.30
16578;DHT22;8401;52.528;13.340;2023-03-01T14:19:26;10.40;82.10
16578;DHT22;8401;52.528;13.340;2023-03-01T14:24:53;10.50;82.50
16578;DHT22;8401;52.528;13.340;2023-03-01T14:27:20;10.60;82.30
16578;DHT22;8401;52.528;13.340;2023-03-01T14:30:00;10.60;82.80
16578;DHT22;8401;52.528;13.340;2023-03-01T14:32:29;10.10;82.30
16578;DHT22;8401;52.528;13.340;2023-03-01T14:34:56;10.00;82.80
16578;DHT22;8401;52.528;13.340;2023-03-01T14:37:29;10.50;83.60
16578;DHT22;8401;52.528;13.340;2023-03-01T14:39:56;10.50;83.60
16578;DHT22;8401;52.528;13.340;2023-03-01T14:42:24;10.50;84.10
16578;DHT22;8401;52.528;13.340;2023-03-01T14:44:53;10.60;84.70
16578;DHT22;8401;52.528;13.340;2023-03-01T14:47:29;10.50;85.90
16578;DHT22;8401;52.528;13.340;2023-03-01T14:50:29;10.60;87.20
16578;DHT22;8401;52.528;13.340;2023-03-01T14:53:01;10.50;88.60
16578;DHT22;8401;52.528;13.340;2023-03-01T14:55:48;10.60;88.80
16578;DHT22;8401;52.528;13.340;2023-03-01T14:58:20;10.70;88.60
16578;DHT22;8401;52.528;13.340;2023-03-01T15:00:51;10.70;89.70
16578;DHT22;8401;52.528;13.340;2023-03-01T15:03:39;10.80;89.20
16578;DHT22;8401;52.528;13.340;2023-03-01T15:06:07;10.60;88.30
16578;DHT22;8401;52.528;13.340;2023-03-01T15:08:34;10.60;88.70
16578;DHT22;8401;52.528;13.340;2023-03-01T15:11:20;10.50;88.50
16578;DHT22;8401;52.528;13.340;2023-03-01T15:13:48;10.40;88.70
16578;DHT22;8401;52.528;13.340;2023-03-01T15:16:19;10.30;89.30
16578;DHT22;8401;52.528;13.340;2023-03-01T15:21:19;10.20;89.10
16578;DHT22;8401;52.528;13.340;2023-03-01T15:23:51;10.60;89.20
16578;DHT22;8401;52.528;13.340;2023-03-01T15:26:35;10.70;88.90
16578;DHT22;8401;52.528;13.340;2023-03-01T15:29:02;10.40;89.10
16578;DHT22;8401;52.528;13.340;2023-03-01T15:31:34;10.30;89.30
16578;DHT22;8401;52.528;13.340;2023-03-01T15:34:29;10.20;89.60
16578;DHT22;8401;52.528;13.340;2023-03-01T15:36:58;10.10;89.40
16578;DHT22;8401;52.528;13.340;2023-03-01T15:39:41;10.40;89.10
16578;DHT22;8401;52.528;13.340;2023-03-01T15:45:21;10.30;89.70
16578;DHT22;8401;52.528;13.340;2023-03-01T15:47:52;10.20;89.70
16578;DHT22;8401;52.528;13.340;2023-03-01T15:52:49;9.90;90.40
16578;DHT22;8401;52.528;13.340;2023-03-01T15:55:22;9.70;90.60
16578;DHT22;8401;52.528;13.340;2023-03-01T15:57:48;9.50;91.00
16578;DHT22;8401;52.528;13.340;2023-03-01T16:00:14;9.60;91.30
16578;DHT22;8401;52.528;13.340;2023-03-01T16:02:42;9.40;91.40
16578;DHT22;8401;52.528;13.340;2023-03-01T16:05:23;9.30;91.80
16578;DHT22;8401;52.528;13.340;2023-03-01T16:07:50;9.20;92.10
16578;DHT22;8401;52.528;13.340;2023-03-01T16:10:16;9.00;92.10
16578;DHT22;8401;52.528;13.340;2023-03-01T16:12:42;8.90;92.30
16578;DHT22;8401;52.528;13.340;2023-03-01T16:15:15;8.80;92.60
16578;DHT22;8401;52.528;13.340;2023-03-01T16:17:42;8.80;92.80
16578;DHT22;8401;52.528;13.340;2023-03-01T16:20:08;8.70;93.00
16578;DHT22;8401;52.528;13.340;2023-03-01T16:22:34;8.70;93.30
16578;DHT22;8401;52.528;13.340;2023-03-01T16:24:59;8.70;93.50
16578;DHT22;8401;52.528;13.340;2023-03-01T16:27:25;8.60;93.80
16578;DHT22;8401;52.528;13.340;2023-03-01T16:29:51;8.60;94.10
16578;DHT22;8401;52.528;13.340;2023-03-01T16:32:17;8.50;94.20
16578;DHT22;8401;52.528;13.340;2023-03-01T16:34:42;8.40;94.60
16578;DHT22;8401;52.528;13.340;2023-03-01T16:37:08;8.30;95.00
16578;DHT22;8401;52.528;13.340;2023-03-01T16:39:33;8.30;95.50
16578;DHT22;8401;52.528;13.340;2023-03-01T16:42:00;8.20;95.70
16578;DHT22;8401;52.528;13.340;2023-03-01T16:44:26;8.10;96.10
16578;DHT22;8401;52.528;13.340;2023-03-01T16:46:52;8.10;96.80
16578;DHT22;8401;52.528;13.340;2023-03-01T16:49:17;8.00;97.10
16578;DHT22;8401;52.528;13.340;2023-03-01T16:51:43;8.00;97.80
16578;DHT22;8401;52.528;13.340;2023-03-01T16:54:10;8.00;98.60
16578;DHT22;8401;52.528;13.340;2023-03-01T16:56:37;7.90;99.00
16578;DHT22;8401;52.528;13.340;2023-03-01T16:59:05;7.90;99.30
16578;DHT22;8401;52.528;13.340;2023-03-01T17:01:31;7.80;99.50
16578;DHT22;8401;52.528;13.340;2023-03-01T17:04:03;7.80;99.90
16578;DHT22;8401;52.528;13.340;2023-03-01T17:06:29;7.80;99.90
16578;DHT22;8401;52.528;13.340;2023-03-01T17:08:54;7.80;99.90
16578;DHT22;8401;52.528;13.340;2023-03-01T17:11:20;7.70;99.90
16578;DHT22;8401;52.528;13.340;2023-03-01T17:13:46;7.60;99.90
16578;DHT22;8401;52.528;13.340;2023-03-01T17:16:14;7.60;99.90
16578;DHT22;8401;52.528;13.340;2023-03-01T17:18:41;7.60;99.90
16578;DHT22;8401;52.528;13.340;2023-03-01T17:21:07;7.50;99.90
16578;DHT22;8401;52.528;13.340;2023-03-01T17:23:35;7.50;99.90
16578;DHT22;8401;52.528;13.340;2023-03-01T17:26:01;7.40;99.90
16578;DHT22;8401;52.528;13.340;2023-03-01T17:28:29;7.40;99.90
16578;DHT22;8401;52.528;13.340;2023-03-01T17:30:54;7.40;99.90
16578;DHT22;8401;52.528;13.340;2023-03-01T17:33:21;7.30;99.90
16578;DHT22;8401;52.528;13.340;2023-03-01T17:35:47;7.30;99.90
16578;DHT22;8401;52.528;13.340;2023-03-01T17:38:13;7.20;99.90
16578;DHT22;8401;52.528;13.340;2023-03-01T17:40:43;7.20;99.90
16578;DHT22;8401;52.528;13.340;2023-03-01T17:43:11;7.20;99.90
16578;DHT22;8401;52.528;13.340;2023-03-01T17:45:38;7.10;99.90
16578;DHT22;8401;52.528;13.340;2023-03-01T17:48:04;7.10;99.90
16578;DHT22;8401;52.528;13.340;2023-03-01T17:50:30;7.10;99.90
16578;DHT22;8401;52.528;13.340;2023-03-01T17:52:59;7.10;99.90